VLG150 LEMH-LEVC

Flight info

Callsign VLG150
Flight time N/A
Altitude 23000
Route EPAMA N733 ARGOR
Aircraft A320/M-SDE3FGHIRWY/LB1

Departure

Time 2026-04-28 13:47
Airport Menorca Airport (LEMH)

Arrival

Time N/A
Airport Valencia Airport (LEVC)
Time Latitude Longitude Altitude Speed Heading
2026-04-28 13:31 39.86527 4.22427 287 ft 0 kts 99°
2026-04-28 13:39 39.86527 4.22424 286 ft 2 kts 99°
2026-04-28 13:39 39.86532 4.22391 287 ft 4 kts 106°
2026-04-28 13:40 39.86542 4.22359 295 ft 4 kts 123°
2026-04-28 13:40 39.86559 4.22337 294 ft 4 kts 179°
2026-04-28 13:40 39.86568 4.22338 294 ft 0 kts 188°
2026-04-28 13:42 39.86563 4.22337 294 ft 5 kts 189°
2026-04-28 13:42 39.86494 4.22323 288 ft 13 kts 188°
2026-04-28 13:42 39.86399 4.22304 291 ft 15 kts 189°
2026-04-28 13:43 39.86290 4.22282 288 ft 17 kts 188°
2026-04-28 13:43 39.86194 4.22247 293 ft 11 kts 228°
2026-04-28 13:43 39.86187 4.22163 291 ft 8 kts 275°
2026-04-28 13:43 39.86176 4.22091 297 ft 9 kts 219°
2026-04-28 13:44 39.86092 4.22069 295 ft 15 kts 188°
2026-04-28 13:44 39.85969 4.22044 296 ft 21 kts 189°
2026-04-28 13:44 39.85808 4.22012 294 ft 26 kts 189°
2026-04-28 13:44 39.85618 4.21972 288 ft 30 kts 189°
2026-04-28 13:45 39.85402 4.21929 283 ft 32 kts 189°
2026-04-28 13:45 39.85200 4.21885 281 ft 12 kts 189°
2026-04-28 13:45 39.85133 4.21827 283 ft 11 kts 255°
2026-04-28 13:45 39.85139 4.21738 284 ft 8 kts 281°
2026-04-28 13:46 39.85153 4.21680 285 ft 5 kts 296°
2026-04-28 13:46 39.85185 4.21653 286 ft 8 kts 341°
2026-04-28 13:46 39.85326 4.21672 285 ft 44 kts
2026-04-28 13:46 39.85873 4.21783 300 ft 112 kts
2026-04-28 13:47 39.86836 4.21979 321 ft 163 kts
2026-04-28 13:47 39.88002 4.22216 686 ft 183 kts
2026-04-28 13:47 39.89362 4.22491 1030 ft 211 kts
2026-04-28 13:47 39.90909 4.22808 1416 ft 239 kts
2026-04-28 13:48 39.92632 4.23169 1984 ft 260 kts
2026-04-28 13:48 39.94442 4.23330 2958 ft 264 kts 349°
2026-04-28 13:48 39.96065 4.22286 3953 ft 264 kts 318°
2026-04-28 13:48 39.97254 4.20449 4847 ft 269 kts 302°
2026-04-28 13:49 39.97971 4.18224 5706 ft 274 kts 279°
2026-04-28 13:49 39.97888 4.15747 6608 ft 277 kts 254°
2026-04-28 13:49 39.97069 4.13468 7495 ft 280 kts 242°
2026-04-28 13:49 39.96251 4.11145 8386 ft 284 kts 251°
2026-04-28 13:50 39.95744 4.08646 9272 ft 287 kts 260°
2026-04-28 13:50 39.95402 4.06075 10137 ft 290 kts 261°
2026-04-28 13:50 39.95075 4.03379 10498 ft 313 kts 261°
2026-04-28 13:50 39.94740 4.00468 10761 ft 336 kts 261°
2026-04-28 13:51 39.94390 3.97396 11310 ft 347 kts 261°
2026-04-28 13:51 39.94033 3.94260 12037 ft 352 kts 261°
2026-04-28 13:51 39.93663 3.91092 12754 ft 356 kts 261°
2026-04-28 13:51 39.93278 3.87886 13473 ft 360 kts 261°
2026-04-28 13:52 39.92883 3.84646 14177 ft 364 kts 261°
2026-04-28 13:52 39.92480 3.81370 14801 ft 370 kts 261°
2026-04-28 13:52 39.92071 3.78023 15320 ft 377 kts 261°
2026-04-28 13:52 39.91659 3.74631 15921 ft 381 kts 261°
2026-04-28 13:53 39.91396 3.72493 16300 ft 384 kts 261°
2026-04-28 13:53 39.90970 3.69049 16907 ft 387 kts 261°
2026-04-28 13:53 39.90543 3.65574 17498 ft 391 kts 261°
2026-04-28 13:54 39.90118 3.62068 18087 ft 394 kts 261°
2026-04-28 13:54 39.89690 3.58521 18663 ft 398 kts 261°
2026-04-28 13:54 39.89254 3.54950 19232 ft 401 kts 261°
2026-04-28 13:54 39.88810 3.51351 19790 ft 404 kts 261°
2026-04-28 13:55 39.88358 3.47724 20328 ft 408 kts 261°
2026-04-28 13:55 39.87899 3.44060 20847 ft 411 kts 260°
2026-04-28 13:55 39.87436 3.40378 21347 ft 414 kts 260°
2026-04-28 13:55 39.86969 3.36668 21823 ft 417 kts 260°
2026-04-28 13:56 39.86505 3.32976 22281 ft 420 kts 260°
2026-04-28 13:56 39.86031 3.29211 22729 ft 423 kts 260°
2026-04-28 13:56 39.85557 3.25428 22960 ft 424 kts 261°
2026-04-28 13:56 39.85077 3.21597 23011 ft 435 kts 261°
2026-04-28 13:57 39.84585 3.17678 23011 ft 442 kts 261°
2026-04-28 13:57 39.84086 3.13721 23010 ft 444 kts 260°
2026-04-28 13:57 39.83600 3.09896 23008 ft 444 kts 260°
2026-04-28 13:57 39.83092 3.05931 23010 ft 444 kts 260°
2026-04-28 13:58 39.82582 3.01971 23007 ft 444 kts 260°
2026-04-28 13:58 39.82072 2.98011 23009 ft 444 kts 260°
2026-04-28 13:58 39.81562 2.94052 23009 ft 444 kts 260°
2026-04-28 13:58 39.81052 2.90092 23008 ft 444 kts 260°
2026-04-28 13:59 39.80540 2.86132 23008 ft 444 kts 260°
2026-04-28 13:59 39.80023 2.82167 23008 ft 444 kts 260°
2026-04-28 13:59 39.79552 2.78573 23005 ft 444 kts 260°
2026-04-28 13:59 39.79032 2.74616 23004 ft 444 kts 260°
2026-04-28 14:00 39.78512 2.70660 23003 ft 444 kts 260°
2026-04-28 14:00 39.77999 2.66760 23002 ft 443 kts 260°
2026-04-28 14:00 39.77480 2.62810 23000 ft 443 kts 260°
2026-04-28 14:00 39.76953 2.58810 22999 ft 443 kts 260°
2026-04-28 14:01 39.76437 2.54916 22998 ft 443 kts 260°
2026-04-28 14:01 39.75912 2.50962 22997 ft 443 kts 260°
2026-04-28 14:01 39.75386 2.47021 22997 ft 443 kts 260°
2026-04-28 14:01 39.74859 2.43070 22997 ft 443 kts 260°
2026-04-28 14:02 39.74333 2.39129 22997 ft 443 kts 260°
2026-04-28 14:02 39.73803 2.35184 22997 ft 443 kts 260°
2026-04-28 14:02 39.73274 2.31238 22997 ft 443 kts 260°
2026-04-28 14:02 39.72742 2.27298 22997 ft 443 kts 260°
2026-04-28 14:03 39.72211 2.23369 22997 ft 443 kts 260°
2026-04-28 14:03 39.71677 2.19425 22997 ft 443 kts 260°
2026-04-28 14:03 39.71140 2.15473 22997 ft 443 kts 259°
2026-04-28 14:03 39.70608 2.11577 22997 ft 443 kts 259°
2026-04-28 14:04 39.70062 2.07587 22997 ft 443 kts 259°
2026-04-28 14:04 39.69527 2.03696 22997 ft 443 kts 259°
2026-04-28 14:04 39.68986 1.99755 22997 ft 443 kts 259°
2026-04-28 14:04 39.68446 1.95813 22997 ft 443 kts 259°
2026-04-28 14:05 39.67902 1.91874 22998 ft 443 kts 259°
2026-04-28 14:05 39.67357 1.87941 22998 ft 443 kts 259°
2026-04-28 14:05 39.66837 1.84202 22998 ft 443 kts 259°
2026-04-28 14:05 39.66288 1.80258 22998 ft 443 kts 259°
2026-04-28 14:06 39.65737 1.76326 22998 ft 443 kts 259°
2026-04-28 14:06 39.65184 1.72389 22998 ft 443 kts 259°
2026-04-28 14:06 39.64633 1.68460 22998 ft 443 kts 259°
2026-04-28 14:06 39.64078 1.64524 22998 ft 443 kts 259°
2026-04-28 14:07 39.63523 1.60591 22998 ft 443 kts 259°
2026-04-28 14:07 39.62969 1.56661 22998 ft 443 kts 259°
2026-04-28 14:07 39.62412 1.52727 22999 ft 443 kts 259°
2026-04-28 14:07 39.61854 1.48799 22999 ft 443 kts 259°
2026-04-28 14:08 39.61291 1.44866 22999 ft 443 kts 259°
2026-04-28 14:08 39.60729 1.40933 22999 ft 443 kts 259°
2026-04-28 14:08 39.60260 1.37033 22997 ft 443 kts 265°
2026-04-28 14:08 39.60110 1.34345 22999 ft 443 kts 266°
2026-04-28 14:09 39.59824 1.29064 22999 ft 443 kts 265°
2026-04-28 14:09 39.59604 1.25081 22999 ft 443 kts 265°
2026-04-28 14:09 39.59380 1.21092 22999 ft 443 kts 265°
2026-04-28 14:09 39.59152 1.17109 22999 ft 443 kts 265°
2026-04-28 14:10 39.58924 1.13122 22999 ft 443 kts 265°
2026-04-28 14:10 39.58696 1.09141 22999 ft 443 kts 265°
2026-04-28 14:10 39.58465 1.05156 23000 ft 443 kts 265°
2026-04-28 14:10 39.58233 1.01171 23000 ft 443 kts 265°
2026-04-28 14:11 39.58002 0.97189 23000 ft 443 kts 265°
2026-04-28 14:11 39.57771 0.93204 23000 ft 443 kts 265°
2026-04-28 14:11 39.57539 0.89225 22999 ft 443 kts 265°
2026-04-28 14:11 39.57300 0.85247 22998 ft 443 kts 265°
2026-04-28 14:12 39.57136 0.82556 22997 ft 443 kts 265°
2026-04-28 14:12 39.56894 0.78579 22997 ft 443 kts 265°
2026-04-28 14:12 39.56654 0.74597 22997 ft 443 kts 265°
2026-04-28 14:12 39.56413 0.70614 22882 ft 443 kts 263°
2026-04-28 14:13 39.56173 0.66669 22906 ft 437 kts 264°
2026-04-28 14:13 39.55934 0.62776 22631 ft 430 kts 264°
2026-04-28 14:13 39.55700 0.58975 22368 ft 427 kts 264°
2026-04-28 14:13 39.55463 0.55151 22110 ft 424 kts 264°
2026-04-28 14:14 39.55246 0.51348 21850 ft 423 kts 266°
2026-04-28 14:14 39.55475 0.47558 21594 ft 422 kts 276°
2026-04-28 14:14 39.55878 0.43795 21343 ft 421 kts 276°
2026-04-28 14:14 39.56285 0.40050 21091 ft 418 kts 276°
2026-04-28 14:15 39.56694 0.36325 20840 ft 416 kts 276°
2026-04-28 14:15 39.57102 0.32618 20591 ft 414 kts 276°
2026-04-28 14:15 39.57511 0.28934 20346 ft 412 kts 276°
2026-04-28 14:15 39.57917 0.25265 20101 ft 410 kts 275°
2026-04-28 14:16 39.58318 0.21618 19859 ft 408 kts 275°
2026-04-28 14:16 39.58712 0.17978 19612 ft 406 kts 275°
2026-04-28 14:16 39.59099 0.14366 19393 ft 404 kts 275°
2026-04-28 14:16 39.59483 0.10769 19152 ft 402 kts 275°
2026-04-28 14:17 39.59866 0.07190 18914 ft 400 kts 275°
2026-04-28 14:17 39.60248 0.03627 18684 ft 398 kts 275°
2026-04-28 14:17 39.60628 0.00084 18452 ft 396 kts 275°
2026-04-28 14:17 39.61005 -0.03445 18222 ft 394 kts 275°
2026-04-28 14:18 39.61379 -0.06959 17957 ft 392 kts 275°
2026-04-28 14:18 39.61752 -0.10460 17728 ft 390 kts 275°
2026-04-28 14:18 39.62098 -0.13736 17225 ft 388 kts 275°
2026-04-28 14:18 39.62462 -0.17199 16594 ft 386 kts 275°
2026-04-28 14:19 39.62823 -0.20647 15969 ft 384 kts 274°
2026-04-28 14:19 39.63115 -0.24035 15361 ft 380 kts 268°
2026-04-28 14:19 39.63089 -0.27446 14765 ft 377 kts 266°
2026-04-28 14:19 39.63047 -0.30770 14170 ft 360 kts 266°
2026-04-28 14:20 39.63007 -0.33950 13559 ft 345 kts 266°
2026-04-28 14:20 39.62965 -0.37000 12904 ft 332 kts 266°
2026-04-28 14:20 39.62919 -0.39952 12273 ft 322 kts 266°
2026-04-28 14:20 39.62872 -0.42814 11644 ft 314 kts 266°
2026-04-28 14:21 39.62824 -0.45612 11030 ft 307 kts 267°
2026-04-28 14:21 39.62776 -0.48348 10427 ft 301 kts 267°
2026-04-28 14:21 39.62729 -0.51039 9825 ft 296 kts 267°
2026-04-28 14:21 39.62685 -0.53696 9178 ft 292 kts 266°
2026-04-28 14:22 39.62641 -0.56307 8538 ft 288 kts 266°
2026-04-28 14:22 39.62597 -0.58884 7914 ft 284 kts 266°
2026-04-28 14:22 39.62552 -0.61428 7291 ft 281 kts 267°
2026-04-28 14:22 39.62509 -0.63947 6687 ft 279 kts 266°
2026-04-28 14:23 39.62463 -0.66451 6068 ft 277 kts 266°
2026-04-28 14:23 39.62398 -0.68927 5433 ft 273 kts 261°
2026-04-28 14:23 39.61716 -0.71140 4825 ft 264 kts 226°
2026-04-28 14:23 39.60218 -0.72378 4202 ft 255 kts 188°
2026-04-28 14:24 39.58566 -0.72140 3939 ft 234 kts 150°
2026-04-28 14:24 39.57472 -0.70710 3710 ft 221 kts 119°
2026-04-28 14:24 39.56790 -0.68959 3439 ft 215 kts 114°
2026-04-28 14:24 39.56153 -0.67223 3173 ft 212 kts 115°
2026-04-28 14:25 39.55515 -0.65520 2889 ft 208 kts 116°
2026-04-28 14:25 39.54896 -0.63882 2630 ft 203 kts 114°
2026-04-28 14:25 39.54289 -0.62277 2382 ft 189 kts 115°
2026-04-28 14:25 39.53727 -0.60796 2099 ft 176 kts 115°
2026-04-28 14:26 39.53219 -0.59455 2003 ft 155 kts 115°
2026-04-28 14:26 39.52758 -0.58229 1671 ft 147 kts 115°
2026-04-28 14:26 39.52303 -0.57067 1449 ft 141 kts 115°